createdAt,value
2019-03-23T00:01:51.410Z,57.63
2019-03-23T00:04:21.205Z,61.37
2019-03-23T00:06:50.922Z,56.13
2019-03-23T00:09:20.714Z,52.63
2019-03-23T00:11:50.493Z,57.93
2019-03-23T00:14:20.184Z,54.57
2019-03-23T00:16:49.943Z,53.40
2019-03-23T00:19:19.635Z,53.80
2019-03-23T00:21:49.366Z,53.47
2019-03-23T00:24:19.046Z,40.33
2019-03-23T00:26:49.056Z,54.60
2019-03-23T00:29:18.794Z,53.80
2019-03-23T00:31:48.486Z,58.10
2019-03-23T00:34:47.850Z,55.93
2019-03-23T00:37:21.128Z,56.00
2019-03-23T00:39:50.918Z,56.97
2019-03-23T00:42:20.681Z,56.80
2019-03-23T00:44:50.402Z,60.17
2019-03-23T00:47:20.107Z,64.53
2019-03-23T00:49:49.847Z,62.87
2019-03-23T00:52:19.561Z,61.70
2019-03-23T00:54:49.257Z,65.03
2019-03-23T00:57:19.004Z,63.07
2019-03-23T00:59:49.017Z,63.37
2019-03-23T01:02:18.797Z,69.77
2019-03-23T01:04:48.533Z,65.87
2019-03-23T01:07:18.250Z,69.17
2019-03-23T01:09:48.056Z,66.20
2019-03-23T01:12:17.843Z,63.80
2019-03-23T01:14:47.531Z,63.40
2019-03-23T01:17:17.276Z,56.13
2019-03-23T01:19:47.028Z,66.30
2019-03-23T01:22:16.757Z,64.40
2019-03-23T01:24:46.560Z,65.87
2019-03-23T01:27:16.301Z,61.00
2019-03-23T01:29:46.042Z,61.33
2019-03-23T01:32:15.855Z,62.40
2019-03-23T01:34:45.588Z,61.53
2019-03-23T01:37:15.325Z,57.67
2019-03-23T01:39:45.112Z,62.47
2019-03-23T01:42:14.838Z,60.07
2019-03-23T01:44:44.540Z,56.30
2019-03-23T01:47:14.279Z,60.03
2019-03-23T01:49:43.976Z,57.87
2019-03-23T01:52:13.715Z,55.50
2019-03-23T01:54:43.396Z,56.40
2019-03-23T01:57:13.168Z,57.80
2019-03-23T01:59:42.874Z,56.13
2019-03-23T02:02:12.722Z,57.90
2019-03-23T02:04:42.463Z,59.10
2019-03-23T02:07:14.053Z,56.87
2019-03-23T02:09:43.613Z,54.17
2019-03-23T02:12:13.330Z,54.17
2019-03-23T02:14:43.071Z,53.87
2019-03-23T02:17:12.786Z,56.60
2019-03-23T02:19:42.525Z,49.37
2019-03-23T02:22:12.314Z,54.03
2019-03-23T02:24:42.004Z,52.83
2019-03-23T02:27:11.826Z,51.70
2019-03-23T02:29:41.511Z,51.60
2019-03-23T02:32:11.245Z,51.43
2019-03-23T02:34:40.951Z,52.00
2019-03-23T02:37:10.720Z,50.83
2019-03-23T02:39:40.440Z,51.90
2019-03-23T02:42:10.155Z,54.23
2019-03-23T02:44:39.927Z,51.07
2019-03-23T02:47:09.917Z,49.70
2019-03-23T02:49:39.609Z,54.67
2019-03-23T02:52:09.394Z,50.27
2019-03-23T02:54:39.121Z,50.50
2019-03-23T02:57:08.941Z,50.37
2019-03-23T02:59:38.802Z,49.03
2019-03-23T03:02:08.696Z,49.97
2019-03-23T03:04:38.477Z,46.83
2019-03-23T03:07:08.214Z,48.47
2019-03-23T03:09:37.915Z,47.83
2019-03-23T03:12:07.654Z,47.30
2019-03-23T03:14:37.393Z,48.77
2019-03-23T03:17:07.121Z,49.00
2019-03-23T03:19:36.850Z,47.87
2019-03-23T03:22:06.542Z,47.60
2019-03-23T03:24:36.307Z,48.40
2019-03-23T03:27:06.005Z,47.50
2019-03-23T03:29:35.717Z,45.87
2019-03-23T03:32:05.480Z,45.87
2019-03-23T03:34:36.524Z,46.53
2019-03-23T03:37:06.196Z,44.40
2019-03-23T03:39:36.009Z,48.60
2019-03-23T03:42:05.924Z,48.20
2019-03-23T03:44:35.630Z,45.93
2019-03-23T03:47:05.358Z,47.77
2019-03-23T03:49:35.188Z,47.80
2019-03-23T03:52:05.100Z,48.00
2019-03-23T03:54:34.783Z,48.23
2019-03-23T03:57:04.452Z,47.37
2019-03-23T03:59:34.215Z,47.87
2019-03-23T04:02:03.971Z,46.87
2019-03-23T04:04:33.730Z,49.20
2019-03-23T04:07:05.937Z,45.20
2019-03-23T04:09:35.683Z,49.60
2019-03-23T04:12:05.433Z,47.77
2019-03-23T04:14:35.255Z,47.73
2019-03-23T04:17:04.953Z,47.43
2019-03-23T04:19:34.708Z,47.57
2019-03-23T04:22:04.431Z,46.53
2019-03-23T04:24:34.174Z,48.40
2019-03-23T04:27:05.125Z,46.67
2019-03-23T04:29:35.111Z,46.77
2019-03-23T04:32:05.739Z,45.80
2019-03-23T04:34:35.485Z,47.53
2019-03-23T04:37:05.199Z,47.53
2019-03-23T04:39:34.949Z,47.13
2019-03-23T04:42:04.677Z,50.07
2019-03-23T04:44:34.396Z,49.20
2019-03-23T04:47:04.077Z,47.77
2019-03-23T04:49:33.896Z,46.07
2019-03-23T04:52:03.589Z,47.47
2019-03-23T04:54:33.305Z,48.53
2019-03-23T04:57:03.748Z,46.90
2019-03-23T04:59:33.625Z,46.93
2019-03-23T05:02:03.377Z,49.67
2019-03-23T05:04:33.114Z,48.93
2019-03-23T05:07:02.889Z,49.53
2019-03-23T05:09:32.582Z,49.80
2019-03-23T05:12:02.583Z,48.57
2019-03-23T05:14:32.307Z,48.87
2019-03-23T05:17:02.009Z,49.27
2019-03-23T05:19:31.743Z,47.23
2019-03-23T05:22:04.059Z,49.53
2019-03-23T05:24:33.789Z,49.67
2019-03-23T05:27:03.504Z,51.73
2019-03-23T05:29:33.229Z,48.07
2019-03-23T05:32:03.021Z,50.67
2019-03-23T05:34:32.746Z,51.97
2019-03-23T05:37:02.429Z,49.80
2019-03-23T05:39:32.131Z,49.00
2019-03-23T05:42:02.266Z,51.07
2019-03-23T05:44:32.177Z,49.90
2019-03-23T05:47:01.883Z,49.93
2019-03-23T05:49:31.644Z,49.67
2019-03-23T05:52:03.776Z,50.97
2019-03-23T05:54:33.479Z,52.77
2019-03-23T05:57:03.203Z,53.53
2019-03-23T05:59:32.907Z,53.47
2019-03-23T06:02:02.692Z,51.60
2019-03-23T06:04:32.461Z,52.93
2019-03-23T06:07:02.154Z,53.37
2019-03-23T06:09:31.893Z,54.00
2019-03-23T06:12:02.247Z,51.80
2019-03-23T06:14:31.942Z,52.00
2019-03-23T06:17:02.302Z,54.53
2019-03-23T06:19:31.988Z,53.87
2019-03-23T06:22:02.531Z,53.73
2019-03-23T06:24:32.256Z,53.93
2019-03-23T06:27:01.966Z,52.97
2019-03-23T06:29:31.873Z,54.50
2019-03-23T06:32:01.649Z,52.13
2019-03-23T06:34:31.299Z,52.57
2019-03-23T06:37:02.744Z,52.00
2019-03-23T06:39:32.433Z,52.93
2019-03-23T06:42:02.171Z,53.60
2019-03-23T06:44:31.896Z,53.17
2019-03-23T06:47:01.620Z,49.43
2019-03-23T06:49:31.386Z,51.67
2019-03-23T06:52:01.081Z,52.30
2019-03-23T06:54:30.874Z,52.80
2019-03-23T06:57:00.797Z,52.10
2019-03-23T06:59:30.526Z,52.87
2019-03-23T07:02:00.235Z,51.20
2019-03-23T07:04:30.237Z,49.73
2019-03-23T07:07:00.004Z,50.70
2019-03-23T07:09:29.692Z,50.93
2019-03-23T07:11:59.415Z,50.80
2019-03-23T07:14:29.397Z,49.00
2019-03-23T07:16:59.083Z,48.93
2019-03-23T07:19:28.903Z,47.70
2019-03-23T07:21:58.691Z,47.30
2019-03-23T07:24:28.391Z,50.30
2019-03-23T07:26:58.169Z,50.00
2019-03-23T07:29:27.883Z,48.57
2019-03-23T07:32:05.600Z,50.60
2019-03-23T07:34:29.509Z,49.57
2019-03-23T07:37:00.660Z,47.87
2019-03-23T07:39:30.698Z,50.60
2019-03-23T07:42:00.456Z,48.70
2019-03-23T07:44:30.245Z,48.23
2019-03-23T07:46:59.968Z,48.07
2019-03-23T07:49:29.651Z,47.67
2019-03-23T07:51:59.396Z,49.70
2019-03-23T07:54:29.110Z,49.13
2019-03-23T07:56:58.911Z,49.10
2019-03-23T07:59:28.707Z,48.30
2019-03-23T08:01:58.401Z,47.70
2019-03-23T08:04:28.544Z,47.53
2019-03-23T08:06:58.324Z,49.67
2019-03-23T08:09:37.350Z,48.63
2019-03-23T08:11:59.528Z,49.93
2019-03-23T08:14:29.249Z,49.03
2019-03-23T08:16:59.031Z,50.33
2019-03-23T08:19:28.861Z,49.33
2019-03-23T08:21:58.711Z,46.57
2019-03-23T08:24:28.420Z,45.20
2019-03-23T08:26:58.125Z,44.60
2019-03-23T08:29:27.875Z,46.13
2019-03-23T08:31:57.654Z,47.33
2019-03-23T08:34:27.950Z,47.67
2019-03-23T08:36:57.658Z,47.00
2019-03-23T08:39:27.402Z,47.93
2019-03-23T08:41:57.106Z,46.40
2019-03-23T08:44:26.810Z,45.87
2019-03-23T08:46:56.546Z,46.07
2019-03-23T08:49:28.563Z,47.70
2019-03-23T08:51:57.866Z,47.03
2019-03-23T08:54:27.594Z,46.27
2019-03-23T08:56:57.327Z,46.47
2019-03-23T08:59:27.048Z,47.73
2019-03-23T09:01:56.765Z,45.57
2019-03-23T09:04:26.571Z,45.77
2019-03-23T09:06:56.566Z,45.73
2019-03-23T09:09:26.267Z,46.70
2019-03-23T09:11:55.973Z,46.47
2019-03-23T09:14:25.709Z,46.17
2019-03-23T09:16:55.468Z,45.90
2019-03-23T09:19:25.460Z,44.03
2019-03-23T09:21:55.273Z,42.87
2019-03-23T09:24:24.987Z,43.97
2019-03-23T09:26:55.027Z,44.57
2019-03-23T09:29:24.848Z,44.07
2019-03-23T09:31:54.584Z,44.37
2019-03-23T09:34:25.167Z,44.77
2019-03-23T09:36:55.003Z,45.30
2019-03-23T09:39:24.964Z,43.40
2019-03-23T09:41:54.685Z,44.00
2019-03-23T09:44:24.400Z,42.37
2019-03-23T09:46:54.204Z,45.00
2019-03-23T09:49:23.960Z,45.03
2019-03-23T09:51:53.724Z,46.10
2019-03-23T09:54:23.493Z,43.33
2019-03-23T09:56:53.290Z,42.97
2019-03-23T09:59:23.039Z,42.93
2019-03-23T10:01:52.752Z,43.83
2019-03-23T10:04:22.464Z,42.53
2019-03-23T10:06:52.177Z,44.40
2019-03-23T10:09:22.001Z,43.20
2019-03-23T10:11:51.731Z,46.33
2019-03-23T10:14:21.465Z,45.03
2019-03-23T10:16:51.207Z,43.73
2019-03-23T10:19:23.186Z,44.30
2019-03-23T10:21:52.357Z,44.43
2019-03-23T10:24:22.150Z,44.57
2019-03-23T10:26:52.322Z,44.50
2019-03-23T10:29:22.195Z,43.73
2019-03-23T10:31:51.935Z,44.20
2019-03-23T10:34:21.709Z,44.97
2019-03-23T10:36:51.576Z,42.83
2019-03-23T10:39:21.370Z,47.83
2019-03-23T10:41:51.417Z,47.40
2019-03-23T10:44:21.213Z,44.87
2019-03-23T10:46:51.011Z,44.80
2019-03-23T10:49:20.778Z,44.70
2019-03-23T10:51:50.524Z,45.43
2019-03-23T10:54:20.473Z,45.03
2019-03-23T10:56:50.259Z,47.50
2019-03-23T10:59:20.229Z,47.70
2019-03-23T11:01:51.339Z,46.67
2019-03-23T11:04:21.059Z,46.47
2019-03-23T11:06:51.086Z,44.50
2019-03-23T11:09:20.774Z,45.17
2019-03-23T11:11:50.750Z,45.97
2019-03-23T11:14:20.600Z,47.03
2019-03-23T11:16:50.392Z,44.77
2019-03-23T11:19:20.264Z,45.83
2019-03-23T11:21:50.998Z,46.23
2019-03-23T11:24:20.700Z,45.57
2019-03-23T11:26:50.398Z,44.87
2019-03-23T11:29:20.304Z,43.60
2019-03-23T11:31:50.077Z,43.47
2019-03-23T11:34:19.824Z,45.70
2019-03-23T11:36:49.589Z,44.80
2019-03-23T11:39:19.280Z,44.63
2019-03-23T11:41:49.018Z,44.17
2019-03-23T11:44:18.742Z,44.37
2019-03-23T11:46:48.482Z,44.17
2019-03-23T11:49:18.199Z,44.93
2019-03-23T11:51:48.549Z,41.63
2019-03-23T11:54:18.263Z,43.30
2019-03-23T11:56:48.011Z,42.07
2019-03-23T11:59:17.742Z,43.17
2019-03-23T12:01:51.760Z,44.63
2019-03-23T12:04:18.950Z,44.63
2019-03-23T12:06:48.711Z,44.17
2019-03-23T12:09:18.404Z,43.37
2019-03-23T12:11:48.130Z,44.13
2019-03-23T12:14:17.878Z,44.43
2019-03-23T12:16:47.615Z,44.40
2019-03-23T12:19:17.312Z,41.60
2019-03-23T12:21:47.024Z,44.93
2019-03-23T12:24:16.860Z,44.87
2019-03-23T12:26:46.592Z,44.17
2019-03-23T12:29:16.291Z,43.20
2019-03-23T12:31:46.036Z,43.10
2019-03-23T12:34:16.019Z,42.07
2019-03-23T12:36:45.830Z,41.20
2019-03-23T12:39:15.521Z,43.43
2019-03-23T12:41:45.230Z,43.93
2019-03-23T12:44:15.012Z,42.07
2019-03-23T12:46:48.439Z,41.70
2019-03-23T12:49:16.173Z,43.80
2019-03-23T12:51:45.905Z,44.30
2019-03-23T12:54:15.706Z,44.40
2019-03-23T12:56:45.538Z,45.10
2019-03-23T12:59:15.297Z,43.17
2019-03-23T13:01:45.040Z,42.07
2019-03-23T13:04:14.744Z,44.07
2019-03-23T13:06:44.481Z,44.80
2019-03-23T13:09:14.215Z,43.53
2019-03-23T13:11:43.918Z,45.77
2019-03-23T13:14:13.619Z,45.73
2019-03-23T13:16:43.548Z,45.63
2019-03-23T13:19:13.262Z,44.47
2019-03-23T13:21:42.952Z,44.63
2019-03-23T13:24:12.691Z,48.33
2019-03-23T13:26:43.111Z,46.60
2019-03-23T13:29:12.830Z,46.73
2019-03-23T13:31:42.625Z,49.57
2019-03-23T13:34:12.329Z,47.77
2019-03-23T13:36:42.080Z,49.63
2019-03-23T13:39:11.764Z,49.27
2019-03-23T13:41:51.218Z,48.30
2019-03-23T13:44:21.257Z,46.77
2019-03-23T13:46:50.930Z,45.57
2019-03-23T13:49:20.672Z,47.17
2019-03-23T13:51:50.394Z,47.43
2019-03-23T13:54:20.078Z,49.10
2019-03-23T13:56:49.841Z,43.03
2019-03-23T13:59:19.532Z,43.17
2019-03-23T14:01:49.365Z,43.73
2019-03-23T14:04:19.136Z,43.50
2019-03-23T14:06:48.955Z,44.93
2019-03-23T14:09:18.705Z,41.23
2019-03-23T14:11:54.920Z,38.97
2019-03-23T14:14:20.013Z,40.83
2019-03-23T14:16:49.857Z,37.43
2019-03-23T14:19:19.584Z,35.57
2019-03-23T14:21:49.334Z,31.80
2019-03-23T14:24:19.140Z,33.10
2019-03-23T14:26:48.991Z,33.70
2019-03-23T14:29:18.709Z,30.37
2019-03-23T14:31:48.473Z,31.33
2019-03-23T14:34:18.221Z,30.47
2019-03-23T14:36:47.938Z,29.80
2019-03-23T14:39:17.746Z,28.50
2019-03-23T14:41:47.461Z,29.10
2019-03-23T14:44:17.192Z,27.37
2019-03-23T14:46:46.903Z,28.03
2019-03-23T14:49:16.629Z,27.57
2019-03-23T14:51:46.386Z,25.50
2019-03-23T14:54:16.081Z,22.43
2019-03-23T14:56:45.867Z,21.07
2019-03-23T14:59:15.629Z,18.03
2019-03-23T15:01:45.433Z,16.97
2019-03-23T15:04:15.222Z,16.03
2019-03-23T15:06:44.987Z,15.03
2019-03-23T15:09:15.069Z,15.20
2019-03-23T15:11:44.763Z,13.87
2019-03-23T15:14:14.578Z,14.30
2019-03-23T15:16:44.306Z,14.50
2019-03-23T15:19:15.607Z,14.63
2019-03-23T15:21:45.616Z,13.90
2019-03-23T15:24:15.340Z,13.93
2019-03-23T15:26:45.069Z,12.90
2019-03-23T15:29:14.839Z,12.47
2019-03-23T15:31:44.634Z,20.07
2019-03-23T15:34:14.530Z,25.37
2019-03-23T15:36:44.256Z,23.73
2019-03-23T15:39:14.105Z,9.20
2019-03-23T15:41:43.786Z,9.97
2019-03-23T15:44:13.537Z,10.50
2019-03-23T15:46:43.287Z,9.83
2019-03-23T15:49:13.033Z,9.87
2019-03-23T15:51:42.726Z,9.80
2019-03-23T15:54:12.453Z,9.73
2019-03-23T15:56:42.157Z,9.27
2019-03-23T15:59:11.887Z,8.77
2019-03-23T16:01:42.059Z,9.17
2019-03-23T16:04:11.806Z,8.40
2019-03-23T16:06:41.626Z,7.67
2019-03-23T16:09:11.332Z,8.40
2019-03-23T16:11:41.080Z,7.57
2019-03-23T16:14:10.827Z,7.17
2019-03-23T16:16:40.645Z,6.43
2019-03-23T16:19:10.346Z,7.50
2019-03-23T16:21:40.087Z,6.23
2019-03-23T16:24:09.825Z,4.77
2019-03-23T16:26:39.622Z,5.50
2019-03-23T16:29:09.774Z,6.00
2019-03-23T16:31:39.558Z,6.00
2019-03-23T16:34:09.271Z,5.97
2019-03-23T16:36:39.023Z,6.27
2019-03-23T16:39:08.794Z,6.20
2019-03-23T16:41:38.489Z,6.57
2019-03-23T16:44:08.646Z,5.57
2019-03-23T16:46:38.362Z,5.60
2019-03-23T16:49:08.103Z,5.57
2019-03-23T16:51:37.912Z,5.80
2019-03-23T16:54:07.677Z,6.00
2019-03-23T16:56:40.474Z,5.47
2019-03-23T16:59:10.176Z,6.07
2019-03-23T17:01:39.920Z,5.83
2019-03-23T17:04:09.664Z,5.93
2019-03-23T17:06:46.214Z,6.50
2019-03-23T17:09:11.107Z,6.67
2019-03-23T17:11:40.899Z,6.13
2019-03-23T17:14:10.612Z,5.50
2019-03-23T17:16:40.362Z,5.70
2019-03-23T17:19:10.188Z,5.20
2019-03-23T17:21:40.069Z,6.17
2019-03-23T17:24:09.906Z,5.53
2019-03-23T17:26:39.998Z,6.40
2019-03-23T17:29:09.708Z,5.97
2019-03-23T17:31:39.437Z,6.40
2019-03-23T17:34:09.298Z,5.50
2019-03-23T17:36:39.029Z,5.33
2019-03-23T17:39:11.743Z,5.43
2019-03-23T17:41:41.586Z,5.23
2019-03-23T17:44:11.377Z,4.37
2019-03-23T17:46:41.066Z,4.23
2019-03-23T17:49:10.794Z,4.37
2019-03-23T17:51:40.516Z,4.47
2019-03-23T17:54:10.207Z,4.33
2019-03-23T17:56:40.040Z,3.80
2019-03-23T17:59:09.780Z,3.73
2019-03-23T18:01:39.504Z,4.03
2019-03-23T18:04:09.195Z,4.30
2019-03-23T18:06:38.955Z,4.83
2019-03-23T18:09:09.070Z,4.57
2019-03-23T18:11:38.763Z,4.00
2019-03-23T18:14:08.497Z,3.93
2019-03-23T18:16:38.223Z,3.43
2019-03-23T18:19:08.001Z,3.63
2019-03-23T18:21:37.805Z,3.67
2019-03-23T18:24:08.006Z,4.37
2019-03-23T18:26:37.781Z,3.90
2019-03-23T18:29:07.877Z,4.63
2019-03-23T18:31:37.572Z,5.17
2019-03-23T18:34:07.355Z,5.47
2019-03-23T18:36:37.078Z,4.20
2019-03-23T18:39:07.817Z,5.17
2019-03-23T18:41:37.668Z,5.00
2019-03-23T18:44:15.802Z,4.90
2019-03-23T18:46:39.135Z,4.03
2019-03-23T18:49:08.952Z,4.37
2019-03-23T18:51:38.832Z,4.70
2019-03-23T18:54:08.698Z,4.60
2019-03-23T18:56:38.424Z,4.57
2019-03-23T18:59:08.260Z,4.23
2019-03-23T19:01:38.115Z,4.23
2019-03-23T19:04:07.926Z,4.53
2019-03-23T19:06:37.715Z,4.17
2019-03-23T19:09:08.218Z,4.87
2019-03-23T19:11:37.975Z,5.70
2019-03-23T19:14:07.757Z,4.93
2019-03-23T19:16:37.483Z,4.97
2019-03-23T19:19:07.224Z,4.70
2019-03-23T19:21:36.930Z,4.80
2019-03-23T19:24:06.804Z,4.97
2019-03-23T19:26:36.884Z,4.17
2019-03-23T19:29:06.673Z,5.13
2019-03-23T19:31:36.379Z,5.20
2019-03-23T19:34:06.216Z,5.17
2019-03-23T19:36:36.076Z,4.83
2019-03-23T19:39:08.532Z,4.40
2019-03-23T19:41:38.266Z,4.50
2019-03-23T19:44:08.019Z,5.27
2019-03-23T19:46:37.781Z,4.53
2019-03-23T19:49:07.525Z,4.17
2019-03-23T19:51:37.261Z,4.47
2019-03-23T19:54:06.997Z,5.03
2019-03-23T19:56:36.785Z,4.27
2019-03-23T19:59:06.525Z,5.50
2019-03-23T20:01:36.301Z,6.50
2019-03-23T20:04:06.206Z,5.30
2019-03-23T20:06:35.924Z,5.70
2019-03-23T20:09:07.769Z,5.43
2019-03-23T20:11:37.501Z,6.73
2019-03-23T20:14:07.284Z,5.73
2019-03-23T20:16:37.363Z,5.77
2019-03-23T20:19:08.148Z,5.23
2019-03-23T20:21:37.975Z,4.57
2019-03-23T20:24:07.838Z,5.33
2019-03-23T20:26:37.619Z,4.30
2019-03-23T20:29:09.221Z,4.90
2019-03-23T20:31:39.029Z,4.87
2019-03-23T20:34:08.911Z,5.30
2019-03-23T20:36:38.671Z,4.37
2019-03-23T20:39:08.594Z,4.93
2019-03-23T20:41:38.337Z,4.30
2019-03-23T20:44:09.691Z,4.57
2019-03-23T20:46:43.538Z,4.80
2019-03-23T20:49:13.457Z,5.13
2019-03-23T20:51:44.747Z,5.00
2019-03-23T20:54:14.565Z,5.10
2019-03-23T20:56:44.712Z,4.13
2019-03-23T20:59:15.724Z,4.90
2019-03-23T21:01:45.567Z,4.53
2019-03-23T21:04:15.258Z,4.40
2019-03-23T21:06:45.153Z,5.03
2019-03-23T21:09:15.123Z,4.90
2019-03-23T21:11:44.862Z,4.70
2019-03-23T21:14:20.306Z,4.70
2019-03-23T21:16:46.105Z,7.13
2019-03-23T21:19:15.813Z,6.27
2019-03-23T21:21:45.563Z,6.57
2019-03-23T21:24:15.336Z,6.17
2019-03-23T21:26:45.332Z,5.63
2019-03-23T21:29:15.988Z,5.57
2019-03-23T21:31:45.752Z,7.77
2019-03-23T21:34:15.623Z,8.47
2019-03-23T21:36:45.339Z,7.10
2019-03-23T21:39:15.027Z,10.63
2019-03-23T21:41:44.823Z,10.17
2019-03-23T21:44:14.533Z,9.13
2019-03-23T21:46:44.253Z,5.97
2019-03-23T21:49:14.249Z,5.73
2019-03-23T21:51:43.946Z,4.60
2019-03-23T21:54:13.702Z,6.20
2019-03-23T21:59:13.998Z,5.87
2019-03-23T22:01:43.826Z,5.47
2019-03-23T22:04:13.521Z,5.43
2019-03-23T22:06:43.254Z,5.50
2019-03-23T22:09:12.997Z,5.33
2019-03-23T22:11:43.058Z,4.47
2019-03-23T22:14:12.744Z,5.70
2019-03-23T22:16:42.447Z,5.87
2019-03-23T22:19:12.493Z,5.53
2019-03-23T22:21:42.198Z,5.57
2019-03-23T22:24:11.915Z,5.83
2019-03-23T22:26:41.650Z,6.10
2019-03-23T22:29:11.536Z,4.93
2019-03-23T22:31:41.238Z,4.80
2019-03-23T22:34:10.940Z,5.00
2019-03-23T22:36:40.674Z,5.23
2019-03-23T22:39:10.382Z,4.63
2019-03-23T22:41:40.083Z,5.57
2019-03-23T22:44:09.879Z,5.67
2019-03-23T22:46:39.572Z,4.80
2019-03-23T22:49:09.349Z,6.17
2019-03-23T22:51:39.059Z,5.73
2019-03-23T22:54:08.814Z,5.30
2019-03-23T22:56:38.528Z,6.03
2019-03-23T22:59:08.322Z,6.77
2019-03-23T23:01:38.050Z,4.80
2019-03-23T23:04:07.871Z,6.13
2019-03-23T23:06:37.567Z,6.20
2019-03-23T23:09:10.125Z,5.80
2019-03-23T23:11:39.900Z,6.03
2019-03-23T23:14:09.579Z,6.57
2019-03-23T23:16:39.312Z,6.10
2019-03-23T23:19:09.271Z,6.27
2019-03-23T23:21:39.011Z,5.63
2019-03-23T23:24:08.749Z,5.47
2019-03-23T23:26:38.474Z,6.53
2019-03-23T23:29:08.221Z,5.30
2019-03-23T23:31:37.938Z,6.20
2019-03-23T23:34:07.664Z,6.03
2019-03-23T23:36:37.387Z,5.90
2019-03-23T23:39:08.417Z,6.17
2019-03-23T23:41:38.138Z,5.67
2019-03-23T23:44:07.807Z,5.87
2019-03-23T23:46:37.542Z,6.17
2019-03-23T23:49:07.274Z,6.27
2019-03-23T23:51:36.965Z,5.83
2019-03-23T23:54:06.635Z,6.07
2019-03-23T23:56:36.393Z,7.13
2019-03-23T23:59:06.100Z,6.07
